05:27
Airports
Links
Donate
Help keep this website running!
PayPal
Bitcoin
METAR
KBKF 280458Z 06005KT 10SM SCT150 SCT220 19/04 A2995 RMK AO2A SLP056 T01920040
Current Weather Conditions at KBKF
VFR 04:58:00 28-06-17
Automated station
Altimeter:29.95 hg
Temp:19.2°c 66°f
Dew point:4.0°c 39°f
Wind:5 knots, 5.8 mph, 3 m/s, from 60°
Visibility:10.0 statute miles
22000(SCT) Scattered
15000(SCT) Scattered
Past METAR reports
VFR 03:58:00 28-06-17
Automated station
Altimeter:29.92 hg
Temp:21.9°c 70°f
Dew point:3.0°c 37°f
Wind:12 knots, 13.8 mph, 6 m/s, from 40°
Visibility:10.0 statute miles
22000(SCT) Scattered
15000(SCT) Scattered
KBKF 280358Z 04012G20KT 10SM SCT150 SCT220 22/03 A2992 RMK AO2A SLP043 T02190030
VFR 02:58:00 28-06-17
Automated station
Altimeter:29.88 hg
Temp:25.4°c 77°f
Dew point:2.1°c 36°f
Wind:10 knots, 11.5 mph, 5 m/s, from 40°
Visibility:10.0 statute miles
22000(BKN) Broken
15000(SCT) Scattered
9000(FEW) A few
KBKF 280258Z 04010KT 10SM FEW090 SCT150 BKN220 25/02 A2988 RMK AO2A LTG DSNT SE SLP029 T02540021 53021
VFR 01:58:00 28-06-17
Automated station
Altimeter:29.84 hg
Temp:31.0°c 88°f
Dew point:-3.7°c 27°f
Wind:12 knots, 13.8 mph, 6 m/s, from 300°
Visibility:10.0 statute miles
22000(BKN) Broken
15000(SCT) Scattered
9000(FEW) A few
KBKF 280158Z 30012KT 10SM FEW090 SCT150 BKN220 31/M04 A2984 RMK AO2A SLP012 T03101037
VFR 00:58:00 28-06-17
Automated station
Altimeter:29.81 hg
Temp:31.1°c 88°f
Dew point:-3.6°c 27°f
Wind:16 knots, 18.4 mph, 8 m/s, from 290°
Visibility:10.0 statute miles
22000(BKN) Broken
15000(SCT) Scattered
9000(FEW) A few
KBKF 280058Z 29016G21KT 10SM FEW090 SCT150 BKN220 31/M04 A2981 RMK AO2A SLP007 T03111036
VFR 23:58:00 27-06-17
Automated station
Altimeter:29.81 hg
Temp:31.5°c 88°f
Dew point:-0.9°c 32°f
Wind:3 knots, 3.5 mph, 2 m/s, from 30°
Visibility:10.0 statute miles
22000(BKN) Broken
15000(SCT) Scattered
9000(FEW) A few
KBKF 272358Z 03003KT 10SM FEW090 SCT150 BKN220 32/M01 A2981 RMK AO2A SLP004 T03151009 10345 20313 57014
TAF
TAF KBKF 280102Z 2801/2907 22009KT 9999 SCT150 SCT200 QNH2980INS TEMPO 2801/2802 04020G30KT 520009 BECMG 2802/2803 VRB06KT 9999 FEW150 QNH2983INS BECMG 2820/2821 16012KT 9999 VCTS SCT080CB QNH2980INS TEMPO 2821/2903 VRB25G35KT -TSRA BKN080CB BECMG 2902/2903 13009KT 9999 NSW SCT200 QNH2982INS TX36/2822Z TN14/2812Z
Forecast at KBKF
01:00 28-06-17 to 02:00 28-06-17
Wind:9 Knots from 220°
Visibility:6.21 statute miles
15000SCT Scattered
20000SCT Scattered
TEMPO 01:00 28-06-17 to 02:00 28-06-17
Wind:20 Knots from 40°
BECMG 02:00 28-06-17 to 20:00 28-06-17
Wind:6 Knots from 360°
Visibility:6.21 statute miles
15000FEW A few
BECMG 20:00 28-06-17 to 02:00 29-06-17
VCTS
Wind:12 Knots from 160°
Visibility:6.21 statute miles
8000SCT Scattered
TEMPO 21:00 28-06-17 to 03:00 29-06-17
-TSRA
Wind:25 Knots from 360°
8000BKN Broken
BECMG 02:00 29-06-17 to 07:00 29-06-17
NSW
Wind:9 Knots from 130°
Visibility:6.21 statute miles
20000SCT Scattered